Turman, Indiana
Current Conditions -  °F | °C
As of 1:15 AM on Monday 26 Jan 2015 (Local Time) from KRSV Reporting Station
Overcast Overcast  
Wind Chill: 17°   Ceiling: 1800
Heat Index: 28°   Visibility: 10mi
Dew Point: 24°   Wind: 15mph
Humidity: 83%   Direction: 20°NNE
Pressure: 29.91"   Gusts: 22mph
Location:  39.1044°N, 87.4347°W
Report Text: KRSV 260615Z AUTO 02013G19KT 10SM BKN018 OVC033 M02/M04 A2991 RMK AO2 T10201045
Loading
Personal Weather Stations






























Interactive Weather Map New forecast layout! Learn more

10-Day Weather Forecast

Advertisements
Track Severe Weather on mobile